x

Mount Louis (45138) Wave Buoy

5:00am - Sun 21st Sep 2014 All times are UTC.

  • Sig Wave height 2.6ft
  • Peak Period 6s
  • Wind
    4mph, 7mph gusts
  • Sea Temp 50°f
  • Air Temp 53°f
  • Sea Pressure 1007.6mb

More Historic Weather Station data

Upgrade to MSW Pro to gain access to the past 30 days of data for over 8000 Wavebouys and Weather Stations around the globe.

Join Pro

Comparision Forecast

View Surf forecast
   
Sun 09/21 5:00am 2.5ft 6s 4 7 mph 1007.6mb 50f 53f
4:00am 2.5ft 5s 9 11 mph 1007.7mb 50f 52f
3:00am 3ft 6s 11 13 mph 1008.1mb 50f 52f
2:00am 3ft 6s 13 16 mph 1008.9mb 50f 52f
1:00am 3ft 6s 13 16 mph 1009.1mb 50f 52f
12:00am 3ft 5s 13 16 mph 1009mb 50f 52f
Sat 09/20 11:00pm 3.5ft 5s 13 16 mph 1008.5mb 49f 52f
10:00pm 3.5ft 5s 18 20 mph 1008.4mb 49f 53f
9:00pm 3.5ft 5s 16 22 mph 1008.4mb 50f 53f
8:00pm 3ft 5s 9 11 mph 1008.9mb 50f 51f
7:00pm 3ft 6s 9 11 mph 1009.1mb 50f 51f
6:00pm 2.5ft 5s 13 16 mph 1009.3mb 50f 52f
5:00pm 2.5ft 5s 11
mph
1010.4mb 49f 52f
4:00pm 2.5ft 5s 9 13 mph 1011.7mb 49f 51f
3:00pm 2.5ft 6s 11 13 mph 1012.7mb 49f 52f
2:00pm 3ft 5s 13 18 mph 1013.2mb 49f 52f
1:00pm 3.5ft 5s 13 18 mph 1013.7mb 49f 52f
12:00pm 4ft 5s 16 20 mph 1014.2mb 49f 51f
11:00am 4.5ft 5s 18 22 mph 1014.9mb 49f 51f
10:00am 4.5ft 5s 20 25 mph 1015.8mb 50f 51f
9:00am 4.5ft 5s 18 22 mph 1016.6mb 50f 51f
8:00am 3.5ft 4s 20 27 mph 1017.6mb 50f 51f
7:00am 3.5ft 6s 18 22 mph 1018.7mb 50f 51f
6:00am 4ft 5s 18 20 mph 1019.5mb 50f 50f
5:00am 3.5ft 5s 20 25 mph 1020.9mb 50f 50f
4:00am 4.5ft 5s 18 22 mph 1021.6mb 50f 49f
3:00am 5ft 6s 20 22 mph 1021.7mb 50f 49f
2:00am 5ft 6s 22 25 mph 1022.3mb 50f 49f
12:00am 6ft 6s 27 31 mph 1023.2mb 50f 49f
Fri 09/19 11:00pm 6ft 6s 27 34 mph 1023.5mb 50f 48f
10:00pm 5.5ft 6s 27 31 mph 1023.2mb 51f 47f
9:00pm 5ft 5s 25 29 mph 1023.1mb 51f 47f
8:00pm 4.5ft 5s 25 31 mph 1023mb 51f 47f
7:00pm 4.5ft 5s 22 25 mph 1023.3mb 50f 47f
6:00pm 4.5ft 5s 22 27 mph 1023.5mb 50f 46f
5:00pm 4.5ft 5s 22 27 mph 1023.4mb 50f 45f
4:00pm 4.5ft 5s 25 29 mph 1023.4mb 51f 44f
3:00pm 5ft 6s 22 27 mph 1023.3mb 50f 44f
2:00pm 5ft 6s 22 27 mph 1023.1mb 51f 43f
1:00pm 5ft 6s 20 25 mph 1022.6mb 51f 43f
12:00pm 6ft 6s 20 27 mph 1021.7mb 50f 44f
11:00am 6ft 6s 25 29 mph 1020.7mb 50f 44f
10:00am 6ft 5s 27 34 mph 1019.4mb 50f 44f
9:00am 5.5ft 5s 25 29 mph 1018mb 50f 45f
6:00am 5.5ft 5s 22 27 mph 1015.5mb 50f 44f
5:00am  -   -  22
mph
1015.1mb - 44f
4:00am 5ft 5s 22 27 mph 1014.7mb 51f 44f
3:00am 4.5ft 6s 22 27 mph 1014.6mb 51f 45f
2:00am 4.5ft 5s 22 29 mph 1014.5mb 51f 45f
1:00am 4ft 5s 22 25 mph 1014.5mb 51f 46f
12:00am 3.5ft 5s 20 25 mph 1014.2mb 51f 46f
Thu 09/18 11:00pm 3.5ft 5s 22 27 mph 1013.8mb 51f 44f
10:00pm 2.5ft 5s 7 11 mph 1013mb 51f 46f
9:00pm 3ft 4s 16 18 mph 1013.2mb 51f 47f
8:00pm 2.5ft 4s 16 20 mph 1013mb 51f 46f
7:00pm 1.3ft 3s 13 18 mph 1012.6mb 51f 44f
6:00pm 0.3ft 11s 11 16 mph 1012.6mb 51f 43f
5:00pm 0.7ft 11s 4 13 mph 1012.7mb 50f 42f
4:00pm 0.7ft 11s 2 4 mph 1012.8mb 50f 41f
3:00pm 0.7ft 11s  -  2 mph 1012.9mb 49f 40f
2:00pm 0.7ft 11s 2 4 mph 1012.8mb 49f 40f
1:00pm 0.7ft 11s 4
mph
1012.9mb 49f 40f
12:00pm 0.7ft 12s 2
mph
1012.6mb 50f 39f
11:00am 1ft 3s 4 9 mph 1012.8mb 50f 40f
10:00am 1ft 12s 4 7 mph 1012.6mb 50f 42f
9:00am 1ft 4s 2 7 mph 1012.8mb 51f 44f
8:00am 1.3ft 5s 2 4 mph 1012.9mb 51f 47f
7:00am 1.3ft 5s 2 9 mph 1012.8mb 51f 50f
6:00am 1.6ft 4s 7
mph
1012.6mb 51f 49f
5:00am 2ft 4s 9
mph
1013.3mb 51f 49f
4:00am 2.5ft 4s 4
mph
1013.5mb 51f 50f
3:00am 2.5ft 4s 11 13 mph 1014mb 51f 50f
2:00am 3.5ft 5s 13 16 mph 1014mb 51f 50f
1:00am 3.5ft 5s 16 18 mph 1013.7mb 51f 50f
12:00am 4.5ft 5s 18 20 mph 1013.6mb 51f 50f
Wed 09/17 11:00pm 5ft 6s 18 22 mph 1013.4mb 51f 50f
10:00pm 5ft 6s 20 25 mph 1013.2mb 51f 50f
9:00pm 6ft 6s 22 29 mph 1012.7mb 51f 50f
8:00pm 6ft 6s 22 29 mph 1012.7mb 51f 49f
7:00pm 6ft 6s 25 29 mph 1012.7mb 51f 49f
6:00pm 5.5ft 6s 25 29 mph 1012.5mb 51f 49f
5:00pm 5ft 6s 20 27 mph 1012.1mb 51f 49f
4:00pm 5ft 6s 22 27 mph 1011.1mb 51f 49f
3:00pm 5ft 6s 25 29 mph 1010.8mb 51f 49f
2:00pm 5ft 5s 25 27 mph 1010.3mb 51f 49f
1:00pm 5.5ft 5s 25 29 mph 1009.2mb 51f 50f
12:00pm 5ft 5s 25 29 mph 1007.9mb 51f 51f
11:00am 4.5ft 5s 22 27 mph 1007.1mb 51f 51f
10:00am 4ft 5s 22 29 mph 1006.4mb 51f 51f
9:00am 2.5ft 4s 22 31 mph 1006mb 51f 53f
8:00am 2ft 3s 18 20 mph 1006mb 51f 53f
7:00am 1.6ft 4s 13 16 mph 1006.2mb 51f 53f